Terminal Aerodrome Forecast
Issued by NWS

Home | Current Version | Previous Version | Graphics & Text | Print | Product List | Glossary On
Versions: 1 2 3 4 5 6 7 8 9 10 11 12 13 14
000
FTUS43 KBIS 141854 AAA
TAFJMS
TAF AMD
KJMS 141854Z 1419/1518 02008KT P6SM VCSH SCT015 BKN040
      TEMPO 1419/1420 -RA SCT015 OVC030
     FM142100 36013KT P6SM VCSH SCT015 OVC060
     FM150100 34009KT P6SM SCT010 BKN080
     FM150500 29005KT P6SM SKC
     FM150900 22005KT P6SM SKC
     FM151500 27012KT P6SM BKN100=

USA.gov is the U.S. government's official web portal to all federal, state and local government web resources and services.